sensor_id;sensor_type;location;lat;lon;timestamp;P1;durP1;ratioP1;P2;durP2;ratioP2
59512;SDS011;45330;51.634;5.562;2023-02-04T00:00:44;21.63;;;4.05;;
59512;SDS011;45330;51.634;5.562;2023-02-04T00:03:10;24.92;;;4.50;;
59512;SDS011;45330;51.634;5.562;2023-02-04T00:05:35;24.98;;;4.22;;
59512;SDS011;45330;51.634;5.562;2023-02-04T00:08:01;29.27;;;4.78;;
59512;SDS011;45330;51.634;5.562;2023-02-04T00:10:27;24.35;;;4.13;;
59512;SDS011;45330;51.634;5.562;2023-02-04T00:12:52;23.63;;;4.30;;
59512;SDS011;45330;51.634;5.562;2023-02-04T00:15:17;23.25;;;3.65;;
59512;SDS011;45330;51.634;5.562;2023-02-04T00:17:43;23.58;;;4.47;;
59512;SDS011;45330;51.634;5.562;2023-02-04T00:20:08;20.92;;;3.42;;
59512;SDS011;45330;51.634;5.562;2023-02-04T00:22:34;23.80;;;4.20;;
59512;SDS011;45330;51.634;5.562;2023-02-04T00:24:59;23.45;;;3.83;;
59512;SDS011;45330;51.634;5.562;2023-02-04T00:27:25;30.70;;;4.60;;
59512;SDS011;45330;51.634;5.562;2023-02-04T00:29:50;21.38;;;3.55;;
59512;SDS011;45330;51.634;5.562;2023-02-04T00:32:15;19.52;;;3.80;;
59512;SDS011;45330;51.634;5.562;2023-02-04T00:34:41;25.05;;;4.30;;
59512;SDS011;45330;51.634;5.562;2023-02-04T00:37:06;25.90;;;4.70;;
59512;SDS011;45330;51.634;5.562;2023-02-04T00:39:31;23.45;;;4.30;;
59512;SDS011;45330;51.634;5.562;2023-02-04T00:41:57;23.88;;;4.13;;
59512;SDS011;45330;51.634;5.562;2023-02-04T00:44:22;23.42;;;3.75;;
59512;SDS011;45330;51.634;5.562;2023-02-04T00:46:48;22.67;;;4.43;;
59512;SDS011;45330;51.634;5.562;2023-02-04T00:49:13;24.92;;;4.18;;
59512;SDS011;45330;51.634;5.562;2023-02-04T00:51:39;23.48;;;4.28;;
59512;SDS011;45330;51.634;5.562;2023-02-04T00:54:05;22.80;;;3.92;;
59512;SDS011;45330;51.634;5.562;2023-02-04T00:56:32;20.27;;;3.53;;
59512;SDS011;45330;51.634;5.562;2023-02-04T00:58:57;24.73;;;3.72;;
59512;SDS011;45330;51.634;5.562;2023-02-04T01:01:23;23.80;;;4.55;;
59512;SDS011;45330;51.634;5.562;2023-02-04T01:03:48;25.35;;;4.03;;
59512;SDS011;45330;51.634;5.562;2023-02-04T01:06:14;24.45;;;5.22;;
59512;SDS011;45330;51.634;5.562;2023-02-04T01:08:39;22.75;;;3.83;;
59512;SDS011;45330;51.634;5.562;2023-02-04T01:11:04;21.00;;;3.60;;
59512;SDS011;45330;51.634;5.562;2023-02-04T01:13:30;25.70;;;4.15;;
59512;SDS011;45330;51.634;5.562;2023-02-04T01:15:55;22.05;;;4.35;;
59512;SDS011;45330;51.634;5.562;2023-02-04T01:18:20;22.30;;;4.30;;
59512;SDS011;45330;51.634;5.562;2023-02-04T01:20:46;22.27;;;3.97;;
59512;SDS011;45330;51.634;5.562;2023-02-04T01:23:11;22.50;;;4.85;;
59512;SDS011;45330;51.634;5.562;2023-02-04T01:25:36;25.17;;;4.45;;
59512;SDS011;45330;51.634;5.562;2023-02-04T01:28:02;26.33;;;4.00;;
59512;SDS011;45330;51.634;5.562;2023-02-04T01:30:27;27.58;;;4.40;;
59512;SDS011;45330;51.634;5.562;2023-02-04T01:32:52;25.13;;;4.13;;
59512;SDS011;45330;51.634;5.562;2023-02-04T01:35:18;24.58;;;3.92;;
59512;SDS011;45330;51.634;5.562;2023-02-04T01:37:43;21.13;;;3.65;;
59512;SDS011;45330;51.634;5.562;2023-02-04T01:40:09;27.15;;;4.43;;
59512;SDS011;45330;51.634;5.562;2023-02-04T01:42:35;26.92;;;4.72;;
59512;SDS011;45330;51.634;5.562;2023-02-04T01:45:01;25.23;;;4.57;;
59512;SDS011;45330;51.634;5.562;2023-02-04T01:47:30;25.13;;;4.43;;
59512;SDS011;45330;51.634;5.562;2023-02-04T01:49:55;21.77;;;4.78;;
59512;SDS011;45330;51.634;5.562;2023-02-04T01:52:21;22.92;;;5.03;;
59512;SDS011;45330;51.634;5.562;2023-02-04T01:54:47;28.17;;;5.03;;
59512;SDS011;45330;51.634;5.562;2023-02-04T01:57:14;23.10;;;4.32;;
59512;SDS011;45330;51.634;5.562;2023-02-04T01:59:44;23.63;;;4.18;;
59512;SDS011;45330;51.634;5.562;2023-02-04T02:05:03;26.67;;;4.35;;
59512;SDS011;45330;51.634;5.562;2023-02-04T02:07:29;24.20;;;4.60;;
59512;SDS011;45330;51.634;5.562;2023-02-04T02:09:54;24.20;;;5.18;;
59512;SDS011;45330;51.634;5.562;2023-02-04T02:12:20;24.48;;;4.28;;
59512;SDS011;45330;51.634;5.562;2023-02-04T02:14:45;27.80;;;4.50;;
59512;SDS011;45330;51.634;5.562;2023-02-04T02:17:10;27.67;;;4.93;;
59512;SDS011;45330;51.634;5.562;2023-02-04T02:19:36;27.70;;;4.82;;
59512;SDS011;45330;51.634;5.562;2023-02-04T02:22:04;27.73;;;5.38;;
59512;SDS011;45330;51.634;5.562;2023-02-04T02:24:51;27.60;;;5.63;;
59512;SDS011;45330;51.634;5.562;2023-02-04T02:27:16;23.83;;;4.50;;
59512;SDS011;45330;51.634;5.562;2023-02-04T02:29:42;29.95;;;5.60;;
59512;SDS011;45330;51.634;5.562;2023-02-04T02:32:08;29.35;;;5.30;;
59512;SDS011;45330;51.634;5.562;2023-02-04T02:34:35;26.17;;;5.07;;
59512;SDS011;45330;51.634;5.562;2023-02-04T02:37:03;28.33;;;4.97;;
59512;SDS011;45330;51.634;5.562;2023-02-04T02:39:29;25.70;;;5.40;;
59512;SDS011;45330;51.634;5.562;2023-02-04T02:41:55;28.00;;;5.35;;
59512;SDS011;45330;51.634;5.562;2023-02-04T02:44:21;31.55;;;6.10;;
59512;SDS011;45330;51.634;5.562;2023-02-04T02:46:48;30.40;;;5.82;;
59512;SDS011;45330;51.634;5.562;2023-02-04T02:49:17;35.80;;;6.60;;
59512;SDS011;45330;51.634;5.562;2023-02-04T02:51:44;34.25;;;6.70;;
59512;SDS011;45330;51.634;5.562;2023-02-04T02:54:17;32.90;;;6.35;;
59512;SDS011;45330;51.634;5.562;2023-02-04T02:56:45;31.77;;;6.55;;
59512;SDS011;45330;51.634;5.562;2023-02-04T02:59:12;27.88;;;7.30;;
59512;SDS011;45330;51.634;5.562;2023-02-04T03:01:41;32.08;;;7.20;;
59512;SDS011;45330;51.634;5.562;2023-02-04T03:04:07;33.58;;;7.60;;
59512;SDS011;45330;51.634;5.562;2023-02-04T03:06:34;38.58;;;9.35;;
59512;SDS011;45330;51.634;5.562;2023-02-04T03:09:00;31.00;;;7.05;;
59512;SDS011;45330;51.634;5.562;2023-02-04T03:11:26;32.05;;;6.85;;
59512;SDS011;45330;51.634;5.562;2023-02-04T03:13:53;28.92;;;6.10;;
59512;SDS011;45330;51.634;5.562;2023-02-04T03:16:20;41.67;;;7.57;;
59512;SDS011;45330;51.634;5.562;2023-02-04T03:18:45;33.15;;;6.57;;
59512;SDS011;45330;51.634;5.562;2023-02-04T03:21:11;35.50;;;7.40;;
59512;SDS011;45330;51.634;5.562;2023-02-04T03:23:37;33.58;;;7.90;;
59512;SDS011;45330;51.634;5.562;2023-02-04T03:26:03;34.20;;;6.90;;
59512;SDS011;45330;51.634;5.562;2023-02-04T03:28:29;32.67;;;7.75;;
59512;SDS011;45330;51.634;5.562;2023-02-04T03:30:56;39.58;;;7.30;;
59512;SDS011;45330;51.634;5.562;2023-02-04T03:33:22;31.38;;;7.15;;
59512;SDS011;45330;51.634;5.562;2023-02-04T03:35:48;31.63;;;7.88;;
59512;SDS011;45330;51.634;5.562;2023-02-04T03:38:15;30.52;;;7.18;;
59512;SDS011;45330;51.634;5.562;2023-02-04T03:40:41;34.17;;;8.00;;
59512;SDS011;45330;51.634;5.562;2023-02-04T03:43:06;33.40;;;7.65;;
59512;SDS011;45330;51.634;5.562;2023-02-04T03:45:31;33.53;;;7.97;;
59512;SDS011;45330;51.634;5.562;2023-02-04T03:47:57;34.65;;;8.57;;
59512;SDS011;45330;51.634;5.562;2023-02-04T03:50:22;42.58;;;8.57;;
59512;SDS011;45330;51.634;5.562;2023-02-04T03:52:47;35.58;;;8.18;;
59512;SDS011;45330;51.634;5.562;2023-02-04T03:55:14;32.08;;;7.63;;
59512;SDS011;45330;51.634;5.562;2023-02-04T03:57:39;28.10;;;7.70;;
59512;SDS011;45330;51.634;5.562;2023-02-04T04:00:05;30.05;;;7.25;;
59512;SDS011;45330;51.634;5.562;2023-02-04T04:02:30;35.28;;;8.75;;
59512;SDS011;45330;51.634;5.562;2023-02-04T04:04:56;32.90;;;7.47;;
59512;SDS011;45330;51.634;5.562;2023-02-04T04:07:21;32.55;;;8.00;;
59512;SDS011;45330;51.634;5.562;2023-02-04T04:09:46;36.60;;;8.27;;
59512;SDS011;45330;51.634;5.562;2023-02-04T04:12:12;34.83;;;8.32;;
59512;SDS011;45330;51.634;5.562;2023-02-04T04:14:37;26.42;;;7.28;;
59512;SDS011;45330;51.634;5.562;2023-02-04T04:17:02;33.72;;;7.43;;
59512;SDS011;45330;51.634;5.562;2023-02-04T04:19:28;31.33;;;8.00;;
59512;SDS011;45330;51.634;5.562;2023-02-04T04:21:55;30.10;;;7.85;;
59512;SDS011;45330;51.634;5.562;2023-02-04T04:24:21;30.20;;;7.93;;
59512;SDS011;45330;51.634;5.562;2023-02-04T04:26:46;36.65;;;8.73;;
59512;SDS011;45330;51.634;5.562;2023-02-04T04:29:11;31.40;;;7.82;;
59512;SDS011;45330;51.634;5.562;2023-02-04T04:31:37;34.55;;;7.70;;
59512;SDS011;45330;51.634;5.562;2023-02-04T04:34:02;32.58;;;7.68;;
59512;SDS011;45330;51.634;5.562;2023-02-04T04:36:27;29.05;;;7.85;;
59512;SDS011;45330;51.634;5.562;2023-02-04T04:38:53;34.38;;;7.35;;
59512;SDS011;45330;51.634;5.562;2023-02-04T04:41:18;36.83;;;9.93;;
59512;SDS011;45330;51.634;5.562;2023-02-04T04:43:44;27.13;;;6.95;;
59512;SDS011;45330;51.634;5.562;2023-02-04T04:46:09;32.92;;;7.88;;
59512;SDS011;45330;51.634;5.562;2023-02-04T04:48:34;31.52;;;8.48;;
59512;SDS011;45330;51.634;5.562;2023-02-04T04:50:59;25.00;;;7.18;;
59512;SDS011;45330;51.634;5.562;2023-02-04T04:53:25;32.22;;;8.05;;
59512;SDS011;45330;51.634;5.562;2023-02-04T04:55:50;31.70;;;8.32;;
59512;SDS011;45330;51.634;5.562;2023-02-04T04:58:16;33.15;;;8.02;;
59512;SDS011;45330;51.634;5.562;2023-02-04T05:00:41;30.77;;;8.38;;
59512;SDS011;45330;51.634;5.562;2023-02-04T05:03:06;31.40;;;8.43;;
59512;SDS011;45330;51.634;5.562;2023-02-04T05:05:32;28.98;;;7.45;;
59512;SDS011;45330;51.634;5.562;2023-02-04T05:07:58;31.42;;;7.72;;
59512;SDS011;45330;51.634;5.562;2023-02-04T05:10:23;29.48;;;7.90;;
59512;SDS011;45330;51.634;5.562;2023-02-04T05:12:48;37.60;;;9.20;;
59512;SDS011;45330;51.634;5.562;2023-02-04T05:15:14;34.97;;;8.18;;
59512;SDS011;45330;51.634;5.562;2023-02-04T05:17:39;34.67;;;8.82;;
59512;SDS011;45330;51.634;5.562;2023-02-04T05:20:05;30.73;;;8.45;;
59512;SDS011;45330;51.634;5.562;2023-02-04T05:22:30;40.53;;;8.57;;
59512;SDS011;45330;51.634;5.562;2023-02-04T05:24:56;30.00;;;8.20;;
59512;SDS011;45330;51.634;5.562;2023-02-04T05:27:21;33.83;;;8.38;;
59512;SDS011;45330;51.634;5.562;2023-02-04T05:29:46;33.45;;;8.65;;
59512;SDS011;45330;51.634;5.562;2023-02-04T05:32:12;29.10;;;8.32;;
59512;SDS011;45330;51.634;5.562;2023-02-04T05:34:37;32.72;;;7.88;;
59512;SDS011;45330;51.634;5.562;2023-02-04T05:37:03;35.20;;;9.00;;
59512;SDS011;45330;51.634;5.562;2023-02-04T05:39:28;34.08;;;8.10;;
59512;SDS011;45330;51.634;5.562;2023-02-04T05:41:53;34.65;;;9.05;;
59512;SDS011;45330;51.634;5.562;2023-02-04T05:44:19;36.75;;;9.07;;
59512;SDS011;45330;51.634;5.562;2023-02-04T05:46:44;35.25;;;8.55;;
59512;SDS011;45330;51.634;5.562;2023-02-04T05:49:09;27.83;;;7.70;;
59512;SDS011;45330;51.634;5.562;2023-02-04T05:51:35;36.40;;;8.95;;
59512;SDS011;45330;51.634;5.562;2023-02-04T05:54:00;33.17;;;9.25;;
59512;SDS011;45330;51.634;5.562;2023-02-04T05:56:25;33.33;;;9.90;;
59512;SDS011;45330;51.634;5.562;2023-02-04T05:58:51;34.20;;;8.98;;
59512;SDS011;45330;51.634;5.562;2023-02-04T06:01:16;32.80;;;10.57;;
59512;SDS011;45330;51.634;5.562;2023-02-04T06:03:42;37.67;;;9.60;;
59512;SDS011;45330;51.634;5.562;2023-02-04T06:06:07;42.97;;;11.52;;
59512;SDS011;45330;51.634;5.562;2023-02-04T06:08:33;46.33;;;11.32;;
59512;SDS011;45330;51.634;5.562;2023-02-04T06:10:58;39.42;;;11.63;;
59512;SDS011;45330;51.634;5.562;2023-02-04T06:13:23;38.22;;;12.27;;
59512;SDS011;45330;51.634;5.562;2023-02-04T06:15:49;37.53;;;11.98;;
59512;SDS011;45330;51.634;5.562;2023-02-04T06:18:14;41.85;;;13.15;;
59512;SDS011;45330;51.634;5.562;2023-02-04T06:20:40;45.30;;;13.93;;
59512;SDS011;45330;51.634;5.562;2023-02-04T06:23:05;44.85;;;11.50;;
59512;SDS011;45330;51.634;5.562;2023-02-04T06:25:30;52.20;;;15.68;;
59512;SDS011;45330;51.634;5.562;2023-02-04T06:27:56;40.10;;;12.35;;
59512;SDS011;45330;51.634;5.562;2023-02-04T06:30:21;42.50;;;13.25;;
59512;SDS011;45330;51.634;5.562;2023-02-04T06:32:46;45.88;;;12.20;;
59512;SDS011;45330;51.634;5.562;2023-02-04T06:35:12;46.75;;;13.38;;
59512;SDS011;45330;51.634;5.562;2023-02-04T06:37:39;41.88;;;12.43;;
59512;SDS011;45330;51.634;5.562;2023-02-04T06:40:04;42.92;;;14.27;;
59512;SDS011;45330;51.634;5.562;2023-02-04T06:42:30;35.55;;;12.43;;
59512;SDS011;45330;51.634;5.562;2023-02-04T06:44:55;39.63;;;13.77;;
59512;SDS011;45330;51.634;5.562;2023-02-04T06:47:21;40.22;;;11.68;;
59512;SDS011;45330;51.634;5.562;2023-02-04T06:49:46;39.03;;;12.40;;
59512;SDS011;45330;51.634;5.562;2023-02-04T06:52:12;39.17;;;12.35;;
59512;SDS011;45330;51.634;5.562;2023-02-04T06:54:37;41.13;;;15.02;;
59512;SDS011;45330;51.634;5.562;2023-02-04T06:57:03;38.88;;;12.18;;
59512;SDS011;45330;51.634;5.562;2023-02-04T06:59:34;36.25;;;11.98;;
59512;SDS011;45330;51.634;5.562;2023-02-04T07:02:02;35.33;;;12.60;;
59512;SDS011;45330;51.634;5.562;2023-02-04T07:04:28;34.65;;;12.32;;
59512;SDS011;45330;51.634;5.562;2023-02-04T07:06:54;33.22;;;11.32;;
59512;SDS011;45330;51.634;5.562;2023-02-04T07:09:19;38.42;;;12.90;;
59512;SDS011;45330;51.634;5.562;2023-02-04T07:11:45;34.35;;;12.52;;
59512;SDS011;45330;51.634;5.562;2023-02-04T07:14:10;37.53;;;12.30;;
59512;SDS011;45330;51.634;5.562;2023-02-04T07:16:36;34.53;;;12.30;;
59512;SDS011;45330;51.634;5.562;2023-02-04T07:19:01;36.97;;;12.50;;
59512;SDS011;45330;51.634;5.562;2023-02-04T07:21:27;41.05;;;14.15;;
59512;SDS011;45330;51.634;5.562;2023-02-04T07:23:53;38.33;;;13.55;;
59512;SDS011;45330;51.634;5.562;2023-02-04T07:26:19;37.58;;;12.88;;
59512;SDS011;45330;51.634;5.562;2023-02-04T07:28:44;34.28;;;12.98;;
59512;SDS011;45330;51.634;5.562;2023-02-04T07:31:10;36.50;;;12.85;;
59512;SDS011;45330;51.634;5.562;2023-02-04T07:33:35;37.42;;;13.85;;
59512;SDS011;45330;51.634;5.562;2023-02-04T07:36:01;36.72;;;13.30;;
59512;SDS011;45330;51.634;5.562;2023-02-04T07:38:26;35.55;;;12.95;;
59512;SDS011;45330;51.634;5.562;2023-02-04T07:40:52;37.08;;;13.27;;
59512;SDS011;45330;51.634;5.562;2023-02-04T07:43:17;35.17;;;13.00;;
59512;SDS011;45330;51.634;5.562;2023-02-04T07:45:42;39.65;;;14.55;;
59512;SDS011;45330;51.634;5.562;2023-02-04T07:48:08;38.60;;;14.02;;
59512;SDS011;45330;51.634;5.562;2023-02-04T07:50:34;36.13;;;13.20;;
59512;SDS011;45330;51.634;5.562;2023-02-04T07:53:00;37.28;;;14.02;;
59512;SDS011;45330;51.634;5.562;2023-02-04T07:55:25;34.67;;;12.77;;
59512;SDS011;45330;51.634;5.562;2023-02-04T07:57:51;36.17;;;13.43;;
59512;SDS011;45330;51.634;5.562;2023-02-04T08:00:17;39.63;;;14.13;;
59512;SDS011;45330;51.634;5.562;2023-02-04T08:02:42;34.35;;;12.98;;
59512;SDS011;45330;51.634;5.562;2023-02-04T08:05:08;36.10;;;13.07;;
59512;SDS011;45330;51.634;5.562;2023-02-04T08:07:34;33.58;;;13.00;;
59512;SDS011;45330;51.634;5.562;2023-02-04T08:10:00;31.88;;;12.23;;
59512;SDS011;45330;51.634;5.562;2023-02-04T08:12:25;33.72;;;13.15;;
59512;SDS011;45330;51.634;5.562;2023-02-04T08:14:50;33.38;;;13.15;;
59512;SDS011;45330;51.634;5.562;2023-02-04T08:17:16;33.20;;;12.98;;
59512;SDS011;45330;51.634;5.562;2023-02-04T08:19:41;31.13;;;11.65;;
59512;SDS011;45330;51.634;5.562;2023-02-04T08:22:06;34.17;;;12.95;;
59512;SDS011;45330;51.634;5.562;2023-02-04T08:24:32;33.88;;;13.45;;
59512;SDS011;45330;51.634;5.562;2023-02-04T08:26:57;33.65;;;13.32;;
59512;SDS011;45330;51.634;5.562;2023-02-04T08:29:23;33.58;;;12.60;;
59512;SDS011;45330;51.634;5.562;2023-02-04T08:31:49;32.40;;;13.18;;
59512;SDS011;45330;51.634;5.562;2023-02-04T08:34:15;28.23;;;11.60;;
59512;SDS011;45330;51.634;5.562;2023-02-04T08:36:40;33.67;;;12.27;;
59512;SDS011;45330;51.634;5.562;2023-02-04T08:39:06;32.80;;;12.43;;
59512;SDS011;45330;51.634;5.562;2023-02-04T08:41:31;31.98;;;12.30;;
59512;SDS011;45330;51.634;5.562;2023-02-04T08:43:57;34.00;;;13.00;;
59512;SDS011;45330;51.634;5.562;2023-02-04T08:46:23;33.75;;;13.88;;
59512;SDS011;45330;51.634;5.562;2023-02-04T08:48:48;33.75;;;12.82;;
59512;SDS011;45330;51.634;5.562;2023-02-04T08:51:14;36.60;;;13.63;;
59512;SDS011;45330;51.634;5.562;2023-02-04T08:53:39;35.10;;;13.45;;
59512;SDS011;45330;51.634;5.562;2023-02-04T08:56:05;35.00;;;13.52;;
59512;SDS011;45330;51.634;5.562;2023-02-04T08:58:31;34.65;;;13.23;;
59512;SDS011;45330;51.634;5.562;2023-02-04T09:00:57;33.50;;;13.25;;
59512;SDS011;45330;51.634;5.562;2023-02-04T09:03:22;32.88;;;12.30;;
59512;SDS011;45330;51.634;5.562;2023-02-04T09:05:47;31.80;;;12.98;;
59512;SDS011;45330;51.634;5.562;2023-02-04T09:08:13;32.58;;;13.23;;
59512;SDS011;45330;51.634;5.562;2023-02-04T09:10:39;36.67;;;13.20;;
59512;SDS011;45330;51.634;5.562;2023-02-04T09:13:05;33.67;;;12.98;;
59512;SDS011;45330;51.634;5.562;2023-02-04T09:15:33;34.47;;;13.98;;
59512;SDS011;45330;51.634;5.562;2023-02-04T09:17:58;33.20;;;12.43;;
59512;SDS011;45330;51.634;5.562;2023-02-04T09:20:35;33.75;;;13.38;;
59512;SDS011;45330;51.634;5.562;2023-02-04T09:23:01;32.35;;;13.70;;
59512;SDS011;45330;51.634;5.562;2023-02-04T09:25:26;28.83;;;11.98;;
59512;SDS011;45330;51.634;5.562;2023-02-04T09:27:52;35.95;;;13.30;;
59512;SDS011;45330;51.634;5.562;2023-02-04T09:30:17;37.67;;;14.68;;
59512;SDS011;45330;51.634;5.562;2023-02-04T09:32:43;33.03;;;13.85;;
59512;SDS011;45330;51.634;5.562;2023-02-04T09:35:08;33.47;;;13.13;;
59512;SDS011;45330;51.634;5.562;2023-02-04T09:37:33;34.05;;;13.85;;
59512;SDS011;45330;51.634;5.562;2023-02-04T09:39:59;35.88;;;13.45;;
59512;SDS011;45330;51.634;5.562;2023-02-04T09:42:24;34.97;;;12.57;;
59512;SDS011;45330;51.634;5.562;2023-02-04T09:44:50;32.88;;;13.50;;
59512;SDS011;45330;51.634;5.562;2023-02-04T09:47:17;36.22;;;12.18;;
59512;SDS011;45330;51.634;5.562;2023-02-04T09:49:46;35.30;;;12.95;;
59512;SDS011;45330;51.634;5.562;2023-02-04T09:52:11;34.95;;;12.80;;
59512;SDS011;45330;51.634;5.562;2023-02-04T09:54:40;35.22;;;12.75;;
59512;SDS011;45330;51.634;5.562;2023-02-04T09:57:16;32.42;;;12.38;;
59512;SDS011;45330;51.634;5.562;2023-02-04T09:59:43;34.88;;;12.10;;
59512;SDS011;45330;51.634;5.562;2023-02-04T10:02:13;33.10;;;11.57;;
59512;SDS011;45330;51.634;5.562;2023-02-04T10:04:46;36.05;;;12.07;;
59512;SDS011;45330;51.634;5.562;2023-02-04T10:07:12;30.88;;;10.88;;
59512;SDS011;45330;51.634;5.562;2023-02-04T10:09:41;36.63;;;10.93;;
59512;SDS011;45330;51.634;5.562;2023-02-04T10:12:07;31.13;;;11.02;;
59512;SDS011;45330;51.634;5.562;2023-02-04T10:14:32;31.70;;;10.57;;
59512;SDS011;45330;51.634;5.562;2023-02-04T10:16:58;35.35;;;10.73;;
59512;SDS011;45330;51.634;5.562;2023-02-04T10:19:25;30.23;;;10.25;;
59512;SDS011;45330;51.634;5.562;2023-02-04T10:21:53;33.83;;;9.85;;
59512;SDS011;45330;51.634;5.562;2023-02-04T10:24:20;35.50;;;10.35;;
59512;SDS011;45330;51.634;5.562;2023-02-04T10:26:50;34.13;;;10.55;;
59512;SDS011;45330;51.634;5.562;2023-02-04T10:29:17;34.85;;;11.25;;
59512;SDS011;45330;51.634;5.562;2023-02-04T10:31:45;33.45;;;9.60;;
59512;SDS011;45330;51.634;5.562;2023-02-04T10:34:19;32.38;;;9.52;;
59512;SDS011;45330;51.634;5.562;2023-02-04T10:36:46;34.92;;;10.20;;
59512;SDS011;45330;51.634;5.562;2023-02-04T10:39:17;34.45;;;10.82;;
59512;SDS011;45330;51.634;5.562;2023-02-04T10:41:54;33.55;;;9.73;;
59512;SDS011;45330;51.634;5.562;2023-02-04T10:44:54;35.10;;;9.45;;
59512;SDS011;45330;51.634;5.562;2023-02-04T10:47:19;33.35;;;10.27;;
59512;SDS011;45330;51.634;5.562;2023-02-04T10:49:50;35.50;;;9.90;;
59512;SDS011;45330;51.634;5.562;2023-02-04T10:52:20;30.00;;;10.18;;
59512;SDS011;45330;51.634;5.562;2023-02-04T10:54:48;30.52;;;10.27;;
59512;SDS011;45330;51.634;5.562;2023-02-04T10:59:52;29.17;;;9.45;;
59512;SDS011;45330;51.634;5.562;2023-02-04T11:05:23;31.88;;;9.63;;
59512;SDS011;45330;51.634;5.562;2023-02-04T11:07:53;31.73;;;9.70;;
59512;SDS011;45330;51.634;5.562;2023-02-04T11:10:20;34.05;;;9.13;;
59512;SDS011;45330;51.634;5.562;2023-02-04T11:18:23;32.03;;;8.13;;
59512;SDS011;45330;51.634;5.562;2023-02-04T11:20:54;28.30;;;7.25;;
59512;SDS011;45330;51.634;5.562;2023-02-04T11:26:00;26.52;;;8.18;;
59512;SDS011;45330;51.634;5.562;2023-02-04T11:28:26;33.10;;;8.90;;
59512;SDS011;45330;51.634;5.562;2023-02-04T11:30:58;33.88;;;9.60;;
59512;SDS011;45330;51.634;5.562;2023-02-04T11:33:25;28.23;;;9.20;;
59512;SDS011;45330;51.634;5.562;2023-02-04T11:36:03;33.65;;;9.65;;
59512;SDS011;45330;51.634;5.562;2023-02-04T11:38:33;31.77;;;9.32;;
59512;SDS011;45330;51.634;5.562;2023-02-04T11:40:58;28.88;;;7.80;;
59512;SDS011;45330;51.634;5.562;2023-02-04T11:43:25;28.27;;;7.97;;
59512;SDS011;45330;51.634;5.562;2023-02-04T11:48:53;28.55;;;6.93;;
59512;SDS011;45330;51.634;5.562;2023-02-04T11:51:23;30.75;;;7.15;;
59512;SDS011;45330;51.634;5.562;2023-02-04T11:53:53;28.90;;;7.15;;
59512;SDS011;45330;51.634;5.562;2023-02-04T11:56:20;27.23;;;7.82;;
59512;SDS011;45330;51.634;5.562;2023-02-04T11:58:46;30.85;;;6.70;;
59512;SDS011;45330;51.634;5.562;2023-02-04T12:01:22;29.75;;;7.40;;
59512;SDS011;45330;51.634;5.562;2023-02-04T12:03:50;31.35;;;7.20;;
59512;SDS011;45330;51.634;5.562;2023-02-04T12:06:22;26.95;;;6.47;;
59512;SDS011;45330;51.634;5.562;2023-02-04T12:09:03;31.50;;;6.50;;
59512;SDS011;45330;51.634;5.562;2023-02-04T12:11:33;30.73;;;7.10;;
59512;SDS011;45330;51.634;5.562;2023-02-04T12:14:07;25.40;;;6.07;;
59512;SDS011;45330;51.634;5.562;2023-02-04T12:16:40;27.33;;;7.10;;
59512;SDS011;45330;51.634;5.562;2023-02-04T12:19:09;26.60;;;6.32;;
59512;SDS011;45330;51.634;5.562;2023-02-04T12:21:36;26.52;;;5.90;;
59512;SDS011;45330;51.634;5.562;2023-02-04T12:24:02;34.38;;;6.70;;
59512;SDS011;45330;51.634;5.562;2023-02-04T12:26:28;30.52;;;6.53;;
59512;SDS011;45330;51.634;5.562;2023-02-04T12:28:53;29.75;;;7.13;;
59512;SDS011;45330;51.634;5.562;2023-02-04T12:31:19;29.35;;;7.80;;
59512;SDS011;45330;51.634;5.562;2023-02-04T12:33:44;30.58;;;6.88;;
59512;SDS011;45330;51.634;5.562;2023-02-04T12:36:10;28.38;;;7.20;;
59512;SDS011;45330;51.634;5.562;2023-02-04T12:38:36;26.45;;;6.32;;
59512;SDS011;45330;51.634;5.562;2023-02-04T12:41:01;26.17;;;6.88;;
59512;SDS011;45330;51.634;5.562;2023-02-04T12:43:26;23.75;;;5.35;;
59512;SDS011;45330;51.634;5.562;2023-02-04T12:45:52;24.02;;;5.75;;
59512;SDS011;45330;51.634;5.562;2023-02-04T12:48:17;22.75;;;4.65;;
59512;SDS011;45330;51.634;5.562;2023-02-04T12:50:42;27.05;;;5.45;;
59512;SDS011;45330;51.634;5.562;2023-02-04T12:53:09;29.33;;;5.63;;
59512;SDS011;45330;51.634;5.562;2023-02-04T12:55:34;27.73;;;5.88;;
59512;SDS011;45330;51.634;5.562;2023-02-04T12:58:00;26.25;;;5.88;;
59512;SDS011;45330;51.634;5.562;2023-02-04T13:00:25;26.17;;;5.55;;
59512;SDS011;45330;51.634;5.562;2023-02-04T13:02:51;25.33;;;5.35;;
59512;SDS011;45330;51.634;5.562;2023-02-04T13:05:19;28.08;;;6.03;;
59512;SDS011;45330;51.634;5.562;2023-02-04T13:07:44;28.65;;;5.68;;
59512;SDS011;45330;51.634;5.562;2023-02-04T13:10:10;25.73;;;5.03;;
59512;SDS011;45330;51.634;5.562;2023-02-04T13:12:37;24.38;;;5.10;;
59512;SDS011;45330;51.634;5.562;2023-02-04T13:15:03;27.02;;;5.10;;
59512;SDS011;45330;51.634;5.562;2023-02-04T13:17:29;26.73;;;6.00;;
59512;SDS011;45330;51.634;5.562;2023-02-04T13:19:55;27.63;;;5.60;;
59512;SDS011;45330;51.634;5.562;2023-02-04T13:22:20;26.33;;;5.32;;
59512;SDS011;45330;51.634;5.562;2023-02-04T13:24:45;25.25;;;5.30;;
59512;SDS011;45330;51.634;5.562;2023-02-04T13:27:11;23.27;;;5.25;;
59512;SDS011;45330;51.634;5.562;2023-02-04T13:29:36;25.17;;;5.05;;
59512;SDS011;45330;51.634;5.562;2023-02-04T13:32:03;25.90;;;5.50;;
59512;SDS011;45330;51.634;5.562;2023-02-04T13:34:28;28.33;;;5.45;;
59512;SDS011;45330;51.634;5.562;2023-02-04T13:36:54;22.88;;;4.57;;
59512;SDS011;45330;51.634;5.562;2023-02-04T13:39:19;25.92;;;4.97;;
59512;SDS011;45330;51.634;5.562;2023-02-04T13:41:44;27.65;;;5.60;;
59512;SDS011;45330;51.634;5.562;2023-02-04T13:44:11;22.60;;;5.13;;
59512;SDS011;45330;51.634;5.562;2023-02-04T13:46:36;26.85;;;5.53;;
59512;SDS011;45330;51.634;5.562;2023-02-04T13:49:02;27.27;;;5.47;;
59512;SDS011;45330;51.634;5.562;2023-02-04T13:51:27;27.02;;;5.75;;
59512;SDS011;45330;51.634;5.562;2023-02-04T13:53:53;26.70;;;4.95;;
59512;SDS011;45330;51.634;5.562;2023-02-04T13:56:19;25.15;;;5.30;;
59512;SDS011;45330;51.634;5.562;2023-02-04T13:58:44;22.67;;;5.07;;
59512;SDS011;45330;51.634;5.562;2023-02-04T14:01:10;25.15;;;5.15;;
59512;SDS011;45330;51.634;5.562;2023-02-04T14:03:36;29.33;;;5.25;;
59512;SDS011;45330;51.634;5.562;2023-02-04T14:06:02;24.60;;;5.07;;
59512;SDS011;45330;51.634;5.562;2023-02-04T14:08:28;24.70;;;5.00;;
59512;SDS011;45330;51.634;5.562;2023-02-04T14:10:53;23.30;;;4.38;;
59512;SDS011;45330;51.634;5.562;2023-02-04T14:13:19;23.95;;;4.65;;
59512;SDS011;45330;51.634;5.562;2023-02-04T14:15:44;29.15;;;6.00;;
59512;SDS011;45330;51.634;5.562;2023-02-04T14:18:09;24.15;;;5.10;;
59512;SDS011;45330;51.634;5.562;2023-02-04T14:20:35;26.38;;;4.95;;
59512;SDS011;45330;51.634;5.562;2023-02-04T14:23:02;23.00;;;4.72;;
59512;SDS011;45330;51.634;5.562;2023-02-04T14:25:28;21.75;;;4.15;;
59512;SDS011;45330;51.634;5.562;2023-02-04T14:27:54;22.52;;;4.30;;
59512;SDS011;45330;51.634;5.562;2023-02-04T14:30:24;26.25;;;5.78;;
59512;SDS011;45330;51.634;5.562;2023-02-04T14:32:51;25.42;;;4.80;;
59512;SDS011;45330;51.634;5.562;2023-02-04T14:35:17;24.95;;;5.07;;
59512;SDS011;45330;51.634;5.562;2023-02-04T14:37:43;25.00;;;4.20;;
59512;SDS011;45330;51.634;5.562;2023-02-04T14:40:09;25.08;;;5.35;;
59512;SDS011;45330;51.634;5.562;2023-02-04T14:42:36;26.67;;;5.50;;
59512;SDS011;45330;51.634;5.562;2023-02-04T14:45:02;23.83;;;6.07;;